createdAt,value
2022-12-13T00:00:57.780Z,30.05
2022-12-13T00:03:24.546Z,27.95
2022-12-13T00:05:51.392Z,78.90
2022-12-13T00:08:18.326Z,75.28
2022-12-13T00:10:45.112Z,45.92
2022-12-13T00:13:11.934Z,66.35
2022-12-13T00:15:38.706Z,79.40
2022-12-13T00:18:05.504Z,56.28
2022-12-13T00:20:32.231Z,43.35
2022-12-13T00:22:59.053Z,42.63
2022-12-13T00:25:25.941Z,47.67
2022-12-13T00:27:52.662Z,39.55
2022-12-13T00:30:20.571Z,41.78
2022-12-13T00:32:47.329Z,80.78
2022-12-13T00:35:14.464Z,60.67
2022-12-13T00:37:41.546Z,48.00
2022-12-13T00:40:08.845Z,39.00
2022-12-13T00:42:35.887Z,31.95
2022-12-13T00:45:02.702Z,29.17
2022-12-13T00:47:29.440Z,25.08
2022-12-13T00:49:56.239Z,24.27
2022-12-13T00:52:23.175Z,24.95
2022-12-13T00:54:49.967Z,25.23
2022-12-13T00:57:16.742Z,23.55
2022-12-13T00:59:43.550Z,24.90
2022-12-13T01:02:10.316Z,23.77
2022-12-13T01:04:37.051Z,24.10
2022-12-13T01:07:03.859Z,23.50
2022-12-13T01:09:32.466Z,23.13
2022-12-13T01:12:01.505Z,24.58
2022-12-13T01:14:28.995Z,23.10
2022-12-13T01:16:55.979Z,23.13
2022-12-13T01:19:29.032Z,23.50
2022-12-13T01:22:05.049Z,25.08
2022-12-13T01:26:59.729Z,25.50
2022-12-13T01:29:27.470Z,25.35
2022-12-13T01:31:54.462Z,23.95
2022-12-13T01:34:26.632Z,24.48
2022-12-13T01:36:58.558Z,24.77
2022-12-13T01:39:27.032Z,23.58
2022-12-13T01:42:03.537Z,23.70
2022-12-13T01:44:52.240Z,24.70
2022-12-13T01:47:43.729Z,24.85
2022-12-13T01:50:17.013Z,22.83
2022-12-13T01:52:45.990Z,23.88
2022-12-13T01:55:14.223Z,23.30
2022-12-13T01:57:45.864Z,22.33
2022-12-13T02:00:14.134Z,22.90
2022-12-13T02:02:41.613Z,23.45
2022-12-13T02:05:33.472Z,24.02
2022-12-13T02:08:02.456Z,23.20
2022-12-13T02:10:31.149Z,23.92
2022-12-13T02:12:59.018Z,23.60
2022-12-13T02:15:35.411Z,23.30
2022-12-13T02:18:29.715Z,24.13
2022-12-13T02:21:18.536Z,24.20
2022-12-13T02:24:22.566Z,24.98
2022-12-13T02:27:11.069Z,24.92
2022-12-13T02:30:17.689Z,24.65
2022-12-13T02:33:08.255Z,24.73
2022-12-13T02:35:44.914Z,25.58
2022-12-13T02:38:35.626Z,24.35
2022-12-13T02:41:11.303Z,24.02
2022-12-13T02:43:48.088Z,25.75
2022-12-13T02:46:19.335Z,27.13
2022-12-13T02:48:49.132Z,25.13
2022-12-13T02:51:17.525Z,26.30
2022-12-13T02:53:46.257Z,26.13
2022-12-13T02:56:13.684Z,26.20
2022-12-13T02:58:49.354Z,26.17
2022-12-13T03:02:10.417Z,26.55
2022-12-13T03:05:17.929Z,25.52
2022-12-13T03:10:52.806Z,24.33
2022-12-13T03:13:39.001Z,23.67
2022-12-13T03:16:24.336Z,24.95
2022-12-13T03:18:54.951Z,23.77
2022-12-13T03:21:22.024Z,25.17
2022-12-13T03:23:49.031Z,26.67
2022-12-13T03:26:21.144Z,26.88
2022-12-13T03:28:48.726Z,25.67
2022-12-13T03:31:15.938Z,26.35
2022-12-13T03:33:42.780Z,26.90
2022-12-13T03:36:10.535Z,24.90
2022-12-13T03:38:38.432Z,24.35
2022-12-13T03:41:10.723Z,25.25
2022-12-13T03:43:38.946Z,25.25
2022-12-13T03:46:06.627Z,25.75
2022-12-13T03:48:33.570Z,27.35
2022-12-13T03:51:00.410Z,25.33
2022-12-13T03:53:33.294Z,26.38
2022-12-13T03:56:05.370Z,26.98
2022-12-13T03:58:36.033Z,25.63
2022-12-13T04:01:09.450Z,26.08
2022-12-13T04:03:37.804Z,25.42
2022-12-13T04:06:05.287Z,25.92
2022-12-13T04:08:32.516Z,24.80
2022-12-13T04:10:59.434Z,25.58
2022-12-13T04:13:35.304Z,24.92
2022-12-13T04:16:03.532Z,25.88
2022-12-13T04:18:30.829Z,25.65
2022-12-13T04:20:58.154Z,27.20
2022-12-13T04:23:24.966Z,26.55
2022-12-13T04:25:51.927Z,27.60
2022-12-13T04:28:22.333Z,29.30
2022-12-13T04:30:53.136Z,29.50
2022-12-13T04:33:24.470Z,28.58
2022-12-13T04:35:51.925Z,27.60
2022-12-13T04:38:18.754Z,26.80
2022-12-13T04:40:45.895Z,27.83
2022-12-13T04:43:12.683Z,25.38
2022-12-13T04:45:39.474Z,26.38
2022-12-13T04:48:06.474Z,27.40
2022-12-13T04:50:33.791Z,27.13
2022-12-13T04:53:00.870Z,27.73
2022-12-13T04:55:27.941Z,26.98
2022-12-13T04:57:54.760Z,28.33
2022-12-13T05:00:23.145Z,27.88
2022-12-13T05:02:50.196Z,27.45
2022-12-13T05:05:17.562Z,27.67
2022-12-13T05:07:44.600Z,26.30
2022-12-13T05:10:11.819Z,26.33
2022-12-13T05:12:38.728Z,27.38
2022-12-13T05:15:06.547Z,25.80
2022-12-13T05:17:33.619Z,26.35
2022-12-13T05:20:00.384Z,26.67
2022-12-13T05:22:27.243Z,26.70
2022-12-13T05:24:54.027Z,26.33
2022-12-13T05:27:24.527Z,26.10
2022-12-13T05:30:02.904Z,26.83
2022-12-13T05:32:44.194Z,26.05
2022-12-13T05:35:22.290Z,27.88
2022-12-13T05:37:55.027Z,28.10
2022-12-13T05:40:23.366Z,28.15
2022-12-13T05:42:50.387Z,28.65
2022-12-13T05:45:20.427Z,30.08
2022-12-13T05:47:47.527Z,30.08
2022-12-13T05:50:16.066Z,31.67
2022-12-13T05:52:43.832Z,31.27
2022-12-13T05:55:11.715Z,29.80
2022-12-13T05:57:39.133Z,29.27
2022-12-13T06:00:30.118Z,32.35
2022-12-13T06:02:56.685Z,29.50
2022-12-13T06:05:27.515Z,35.25
2022-12-13T06:07:57.443Z,33.75
2022-12-13T06:10:24.672Z,33.60
2022-12-13T06:12:51.505Z,32.88
2022-12-13T06:15:22.044Z,33.42
2022-12-13T06:17:49.635Z,35.03
2022-12-13T06:20:23.824Z,41.78
2022-12-13T06:22:52.567Z,40.63
2022-12-13T06:25:30.086Z,37.70
2022-12-13T06:28:00.928Z,36.08
2022-12-13T06:30:29.230Z,35.38
2022-12-13T06:32:56.447Z,33.85
2022-12-13T06:35:28.044Z,31.92
2022-12-13T06:38:01.131Z,39.50
2022-12-13T06:40:29.387Z,37.17
2022-12-13T06:42:56.206Z,33.67
2022-12-13T06:45:23.868Z,35.33
2022-12-13T06:47:50.687Z,33.95
2022-12-13T06:50:17.604Z,33.78
2022-12-13T06:52:46.377Z,34.92
2022-12-13T06:55:13.655Z,36.95
2022-12-13T06:57:41.241Z,41.85
2022-12-13T07:00:09.409Z,35.65
2022-12-13T07:02:38.100Z,31.35
2022-12-13T07:05:05.482Z,29.48
2022-12-13T07:07:32.646Z,30.48
2022-12-13T07:09:59.601Z,29.42
2022-12-13T07:12:26.564Z,29.70
2022-12-13T07:14:53.422Z,36.05
2022-12-13T07:17:32.481Z,32.80
2022-12-13T07:20:08.111Z,27.05
2022-12-13T07:22:38.838Z,30.08
2022-12-13T07:25:28.195Z,24.42
2022-12-13T07:28:08.090Z,24.80
2022-12-13T07:30:41.227Z,23.02
2022-12-13T07:33:09.319Z,23.90
2022-12-13T07:35:37.044Z,23.67
2022-12-13T07:38:05.670Z,22.75
2022-12-13T07:40:36.378Z,22.20
2022-12-13T07:43:03.690Z,26.20
2022-12-13T07:45:30.450Z,39.80
2022-12-13T07:47:57.288Z,38.90
2022-12-13T07:50:25.623Z,32.33
2022-12-13T07:52:53.461Z,27.23
2022-12-13T07:55:22.936Z,33.15
2022-12-13T07:58:11.441Z,29.63
2022-12-13T08:00:39.618Z,28.15
2022-12-13T08:03:06.808Z,28.25
2022-12-13T08:05:38.302Z,28.40
2022-12-13T08:08:08.459Z,30.48
2022-12-13T08:10:36.899Z,26.05
2022-12-13T08:13:04.153Z,27.75
2022-12-13T08:15:31.112Z,29.83
2022-12-13T08:18:00.463Z,28.92
2022-12-13T08:20:27.440Z,30.27
2022-12-13T08:23:02.076Z,28.63
2022-12-13T08:25:30.415Z,26.07
2022-12-13T08:28:01.372Z,26.20
2022-12-13T08:30:30.022Z,26.02
2022-12-13T08:32:57.619Z,22.35
2022-12-13T08:35:32.062Z,22.52
2022-12-13T08:38:01.156Z,22.08
2022-12-13T08:40:27.999Z,21.30
2022-12-13T08:42:57.699Z,21.20
2022-12-13T08:45:24.978Z,21.60
2022-12-13T08:47:51.726Z,24.58
2022-12-13T08:50:18.520Z,22.63
2022-12-13T08:52:45.600Z,23.20
2022-12-13T08:55:13.980Z,21.38
2022-12-13T08:57:42.093Z,21.92
2022-12-13T09:00:11.969Z,22.42
2022-12-13T09:02:39.080Z,20.08
2022-12-13T09:05:08.248Z,19.10
2022-12-13T09:07:36.494Z,18.48
2022-12-13T09:10:25.555Z,18.88
2022-12-13T09:12:51.882Z,18.35
2022-12-13T09:15:21.975Z,18.42
2022-12-13T09:17:52.563Z,20.38
2022-12-13T09:20:28.750Z,18.25
2022-12-13T09:23:02.383Z,18.50
2022-12-13T09:25:37.400Z,19.23
2022-12-13T09:28:09.616Z,18.47
2022-12-13T09:30:37.827Z,16.98
2022-12-13T09:33:28.781Z,16.65
2022-12-13T09:35:52.531Z,16.63
2022-12-13T09:38:20.156Z,16.48
2022-12-13T09:40:49.866Z,16.50
2022-12-13T09:43:32.093Z,16.02
2022-12-13T09:46:12.932Z,17.27
2022-12-13T09:48:40.844Z,16.90
2022-12-13T09:51:18.424Z,16.70
2022-12-13T09:53:56.982Z,17.38
2022-12-13T09:56:26.446Z,15.90
2022-12-13T09:58:56.553Z,16.83
2022-12-13T10:01:24.115Z,16.10
2022-12-13T10:03:54.293Z,17.20
2022-12-13T10:06:24.173Z,19.25
2022-12-13T10:08:57.355Z,18.55
2022-12-13T10:11:31.363Z,17.55
2022-12-13T10:14:11.797Z,17.63
2022-12-13T10:16:44.831Z,15.80
2022-12-13T10:19:28.857Z,16.17
2022-12-13T10:22:02.265Z,16.13
2022-12-13T10:24:49.723Z,15.77
2022-12-13T10:27:19.811Z,16.15
2022-12-13T10:30:08.853Z,16.15
2022-12-13T10:32:55.071Z,15.93
2022-12-13T10:35:32.524Z,16.20
2022-12-13T10:38:22.673Z,16.27
2022-12-13T10:41:01.111Z,15.93
2022-12-13T10:43:30.184Z,16.05
2022-12-13T10:45:59.982Z,15.95
2022-12-13T10:48:45.785Z,16.70
2022-12-13T10:51:21.834Z,16.98
2022-12-13T10:56:22.808Z,19.50
2022-12-13T10:59:13.413Z,18.40
2022-12-13T11:01:44.108Z,18.83
2022-12-13T11:04:33.811Z,19.48
2022-12-13T11:07:12.158Z,19.50
2022-12-13T11:09:39.459Z,19.67
2022-12-13T11:12:16.304Z,19.95
2022-12-13T11:15:16.049Z,18.88
2022-12-13T11:17:56.929Z,18.13
2022-12-13T11:20:38.016Z,18.90
2022-12-13T11:23:29.955Z,17.95
2022-12-13T11:26:05.196Z,18.63
2022-12-13T11:28:44.447Z,20.33
2022-12-13T11:31:22.072Z,20.23
2022-12-13T11:33:51.561Z,20.90
2022-12-13T11:36:37.059Z,17.30
2022-12-13T11:39:13.773Z,18.00
2022-12-13T11:42:21.270Z,17.10
2022-12-13T11:45:22.834Z,17.85
2022-12-13T11:47:59.714Z,18.70
2022-12-13T11:50:39.040Z,18.67
2022-12-13T11:53:27.157Z,17.83
2022-12-13T11:56:17.896Z,18.80
2022-12-13T11:59:03.041Z,20.10
2022-12-13T12:01:38.366Z,18.95
2022-12-13T12:04:36.777Z,19.80
2022-12-13T12:07:31.185Z,20.95
2022-12-13T12:10:15.195Z,21.70
2022-12-13T12:12:48.725Z,22.38
2022-12-13T12:15:41.982Z,22.25
2022-12-13T12:18:16.320Z,25.92
2022-12-13T12:21:05.203Z,31.42
2022-12-13T12:23:46.319Z,31.35
2022-12-13T12:26:18.477Z,27.35
2022-12-13T12:29:12.851Z,25.42
2022-12-13T12:32:00.835Z,23.52
2022-12-13T12:34:36.257Z,22.60
2022-12-13T12:37:11.972Z,22.65
2022-12-13T12:40:06.095Z,22.58
2022-12-13T12:43:14.497Z,21.33
2022-12-13T12:46:14.808Z,20.52
2022-12-13T12:49:01.812Z,22.25
2022-12-13T12:51:57.467Z,20.35
2022-12-13T12:55:03.381Z,19.58
2022-12-13T12:57:33.182Z,19.55
2022-12-13T13:00:09.455Z,19.38
2022-12-13T13:03:01.794Z,21.73
2022-12-13T13:05:40.157Z,21.70
2022-12-13T13:08:15.996Z,22.42
2022-12-13T13:10:49.765Z,22.05
2022-12-13T13:13:46.519Z,22.10
2022-12-13T13:16:38.943Z,22.17
2022-12-13T13:19:11.785Z,21.42
2022-12-13T13:22:01.278Z,20.70
2022-12-13T13:24:30.201Z,19.90
2022-12-13T13:26:58.361Z,19.08
2022-12-13T13:29:27.437Z,19.40
2022-12-13T13:32:29.019Z,19.65
2022-12-13T13:35:28.978Z,21.13
2022-12-13T13:37:56.728Z,21.27
2022-12-13T13:40:30.932Z,22.70
2022-12-13T13:43:10.371Z,24.00
2022-12-13T13:46:03.332Z,22.55
2022-12-13T13:48:52.046Z,21.70
2022-12-13T13:51:49.376Z,24.48
2022-12-13T13:54:42.213Z,21.45
2022-12-13T13:58:07.253Z,20.63
2022-12-13T14:00:56.837Z,20.73
2022-12-13T14:03:38.610Z,18.75
2022-12-13T14:06:43.981Z,19.33
2022-12-13T14:09:25.654Z,19.77
2022-12-13T14:12:01.357Z,20.40
2022-12-13T14:15:05.756Z,19.17
2022-12-13T14:17:47.562Z,19.77
2022-12-13T14:20:41.794Z,21.25
2022-12-13T14:23:38.830Z,20.38
2022-12-13T14:28:41.700Z,22.55
2022-12-13T14:31:23.141Z,21.42
2022-12-13T14:33:53.278Z,20.13
2022-12-13T14:36:35.499Z,19.67
2022-12-13T14:39:24.642Z,20.55
2022-12-13T14:41:56.702Z,19.98
2022-12-13T14:44:30.264Z,20.70
2022-12-13T14:47:03.359Z,20.45
2022-12-13T14:49:33.572Z,20.33
2022-12-13T14:52:15.883Z,20.88
2022-12-13T14:54:57.961Z,20.50
2022-12-13T14:57:27.932Z,20.23
2022-12-13T14:59:57.032Z,20.52
2022-12-13T15:02:30.462Z,20.00
2022-12-13T15:05:00.651Z,21.33
2022-12-13T15:07:32.271Z,20.98
2022-12-13T15:10:19.599Z,19.77
2022-12-13T15:12:48.041Z,19.98
2022-12-13T15:15:36.052Z,21.13
2022-12-13T15:18:20.244Z,20.88
2022-12-13T15:20:48.226Z,20.98
2022-12-13T15:23:30.098Z,20.90
2022-12-13T15:26:28.868Z,20.73
2022-12-13T15:29:09.891Z,22.27
2022-12-13T15:31:38.823Z,20.77
2022-12-13T15:34:41.284Z,20.35
2022-12-13T15:37:28.479Z,19.67
2022-12-13T15:40:00.449Z,19.15
2022-12-13T15:42:36.260Z,21.45
2022-12-13T15:45:06.225Z,20.30
2022-12-13T15:47:33.508Z,21.67
2022-12-13T15:50:03.941Z,20.88
2022-12-13T15:52:41.349Z,22.50
2022-12-13T15:55:10.877Z,21.23
2022-12-13T15:57:52.877Z,21.58
2022-12-13T16:00:30.942Z,20.48
2022-12-13T16:03:12.493Z,19.05
2022-12-13T16:05:47.133Z,18.60
2022-12-13T16:08:35.786Z,19.25
2022-12-13T16:11:03.084Z,18.73
2022-12-13T16:13:36.822Z,17.85
2022-12-13T16:16:10.012Z,16.52
2022-12-13T16:18:46.461Z,15.38
2022-12-13T16:21:14.464Z,16.30
2022-12-13T16:23:41.327Z,16.25
2022-12-13T16:26:21.346Z,15.60
2022-12-13T16:28:48.120Z,15.77
2022-12-13T16:31:22.188Z,15.40
2022-12-13T16:33:49.472Z,14.70
2022-12-13T16:36:16.484Z,15.25
2022-12-13T16:38:43.552Z,14.88
2022-12-13T16:41:10.975Z,15.15
2022-12-13T16:43:44.623Z,14.40
2022-12-13T16:47:14.155Z,14.55
2022-12-13T16:49:01.936Z,14.35
2022-12-13T16:51:28.688Z,14.40
2022-12-13T16:53:55.449Z,14.45
2022-12-13T16:56:22.357Z,14.23
2022-12-13T16:58:50.534Z,13.95
2022-12-13T17:01:21.298Z,14.27
2022-12-13T17:03:48.338Z,14.57
2022-12-13T17:06:19.103Z,14.13
2022-12-13T17:08:45.855Z,13.73
2022-12-13T17:11:17.796Z,14.07
2022-12-13T17:13:46.968Z,13.63
2022-12-13T17:16:14.212Z,13.65
2022-12-13T17:18:41.192Z,13.90
2022-12-13T17:21:09.560Z,13.23
2022-12-13T17:23:36.532Z,13.80
2022-12-13T17:26:08.056Z,12.68
2022-12-13T17:28:35.121Z,13.98
2022-12-13T17:31:06.685Z,13.80
2022-12-13T17:33:33.874Z,14.27
2022-12-13T17:36:08.978Z,13.52
2022-12-13T17:38:36.483Z,14.30
2022-12-13T17:41:04.023Z,13.40
2022-12-13T17:43:34.948Z,13.10
2022-12-13T17:46:12.193Z,12.70
2022-12-13T17:48:41.164Z,12.93
2022-12-13T17:51:12.619Z,11.57
2022-12-13T17:53:40.578Z,10.55
2022-12-13T17:56:10.611Z,13.02
2022-12-13T17:58:37.688Z,11.55
2022-12-13T18:01:11.708Z,9.80
2022-12-13T18:03:38.686Z,10.63
2022-12-13T18:06:07.252Z,10.70
2022-12-13T18:08:35.983Z,9.18
2022-12-13T18:13:54.954Z,7.55
2022-12-13T18:16:23.367Z,8.00
2022-12-13T18:18:54.833Z,6.88
2022-12-13T18:21:23.352Z,7.03
2022-12-13T18:23:55.491Z,5.95
2022-12-13T18:26:24.584Z,6.20
2022-12-13T18:28:52.261Z,4.90
2022-12-13T18:31:22.965Z,5.70
2022-12-13T18:33:51.636Z,5.18
2022-12-13T18:36:20.770Z,4.75
2022-12-13T18:38:48.068Z,4.95
2022-12-13T18:41:17.811Z,5.15
2022-12-13T18:43:45.468Z,5.28
2022-12-13T18:46:13.573Z,5.22
2022-12-13T18:48:41.230Z,4.88
2022-12-13T18:51:09.839Z,4.60
2022-12-13T18:53:37.776Z,5.03
2022-12-13T18:56:18.202Z,5.47
2022-12-13T18:58:48.199Z,4.22
2022-12-13T19:01:16.504Z,4.80
2022-12-13T19:03:47.347Z,4.57
2022-12-13T19:06:20.465Z,5.40
2022-12-13T19:08:49.283Z,5.90
2022-12-13T19:11:16.518Z,5.72
2022-12-13T19:13:43.788Z,5.57
2022-12-13T19:16:12.957Z,5.78
2022-12-13T19:18:40.000Z,6.20
2022-12-13T19:21:10.497Z,5.80
2022-12-13T19:23:39.304Z,5.88
2022-12-13T19:26:09.419Z,6.25
2022-12-13T19:28:36.790Z,5.90
2022-12-13T19:31:04.946Z,5.85
2022-12-13T19:33:32.631Z,5.55
2022-12-13T19:36:00.238Z,6.05
2022-12-13T19:38:27.184Z,6.20
2022-12-13T19:40:54.182Z,6.15
2022-12-13T19:43:21.600Z,7.15
2022-12-13T19:45:48.719Z,7.50
2022-12-13T19:48:16.087Z,6.70
2022-12-13T19:50:44.402Z,6.28
2022-12-13T19:53:12.094Z,6.82
2022-12-13T19:55:45.061Z,6.72
2022-12-13T19:58:15.282Z,7.40
2022-12-13T20:00:42.184Z,6.90
2022-12-13T20:03:09.152Z,6.93
2022-12-13T20:05:36.477Z,6.53
2022-12-13T20:08:03.942Z,7.32
2022-12-13T20:10:31.108Z,6.95
2022-12-13T20:12:57.968Z,7.28
2022-12-13T20:15:24.858Z,8.15
2022-12-13T20:17:52.273Z,7.68
2022-12-13T20:20:20.138Z,8.25
2022-12-13T20:22:48.505Z,7.78
2022-12-13T20:25:15.743Z,7.53
2022-12-13T20:27:44.149Z,9.80
2022-12-13T20:30:11.760Z,9.30
2022-12-13T20:32:38.836Z,8.95
2022-12-13T20:35:06.520Z,8.55
2022-12-13T20:37:33.440Z,8.52
2022-12-13T20:40:00.357Z,9.13
2022-12-13T20:42:27.298Z,9.32
2022-12-13T20:44:54.227Z,9.80
2022-12-13T20:47:21.067Z,9.52
2022-12-13T20:49:48.874Z,9.93
2022-12-13T20:52:17.018Z,9.15
2022-12-13T20:54:43.941Z,9.50
2022-12-13T20:57:10.706Z,9.60
2022-12-13T20:59:37.865Z,9.90
2022-12-13T21:02:04.785Z,10.15
2022-12-13T21:04:31.735Z,9.60
2022-12-13T21:06:58.640Z,10.70
2022-12-13T21:09:25.437Z,9.52
2022-12-13T21:11:52.222Z,10.23
2022-12-13T21:14:25.540Z,10.15
2022-12-13T21:16:53.646Z,10.60
2022-12-13T21:19:39.087Z,11.00
2022-12-13T21:22:06.802Z,10.52
2022-12-13T21:24:33.714Z,10.27
2022-12-13T21:27:00.784Z,10.13
2022-12-13T21:29:27.688Z,10.80
2022-12-13T21:31:55.017Z,10.13
2022-12-13T21:34:22.300Z,10.50
2022-12-13T21:36:52.161Z,11.50
2022-12-13T21:39:22.584Z,10.65
2022-12-13T21:41:49.652Z,11.32
2022-12-13T21:44:18.121Z,11.15
2022-12-13T21:49:32.041Z,11.20
2022-12-13T21:51:58.850Z,11.05
2022-12-13T21:54:25.589Z,10.98
2022-12-13T21:57:11.134Z,11.35
2022-12-13T21:59:37.877Z,10.80
2022-12-13T22:02:14.320Z,11.88
2022-12-13T22:05:01.776Z,11.52
2022-12-13T22:07:33.738Z,11.80
2022-12-13T22:10:02.756Z,10.80
2022-12-13T22:12:34.252Z,10.93
2022-12-13T22:15:01.555Z,10.65
2022-12-13T22:17:35.022Z,10.43
2022-12-13T22:20:07.827Z,10.65
2022-12-13T22:22:35.001Z,10.32
2022-12-13T22:25:01.867Z,9.80
2022-12-13T22:27:28.733Z,9.55
2022-12-13T22:29:57.448Z,9.85
2022-12-13T22:32:29.490Z,10.18
2022-12-13T22:34:56.494Z,8.95
2022-12-13T22:37:24.230Z,10.90
2022-12-13T22:39:51.249Z,10.25
2022-12-13T22:42:18.052Z,10.57
2022-12-13T22:44:44.809Z,10.00
2022-12-13T22:47:11.586Z,10.50
2022-12-13T22:49:38.397Z,10.80
2022-12-13T22:52:05.390Z,10.23
2022-12-13T22:54:32.197Z,11.18
2022-12-13T22:56:58.979Z,10.75
2022-12-13T22:59:25.816Z,10.57
2022-12-13T23:01:57.982Z,11.45
2022-12-13T23:04:28.557Z,9.88
2022-12-13T23:06:55.358Z,10.18
2022-12-13T23:09:22.139Z,9.70
2022-12-13T23:12:07.782Z,11.20
2022-12-13T23:14:35.149Z,10.57
2022-12-13T23:17:02.948Z,10.23
2022-12-13T23:19:49.744Z,10.00
2022-12-13T23:22:17.292Z,9.73
2022-12-13T23:24:44.101Z,10.38
2022-12-13T23:27:10.900Z,10.73
2022-12-13T23:29:37.735Z,11.85
2022-12-13T23:32:04.896Z,11.73
2022-12-13T23:34:31.680Z,12.48
2022-12-13T23:36:58.655Z,11.95
2022-12-13T23:39:25.521Z,10.82
2022-12-13T23:41:52.315Z,11.38
2022-12-13T23:44:19.087Z,11.15
2022-12-13T23:46:48.357Z,10.90
2022-12-13T23:49:15.652Z,11.93
2022-12-13T23:51:42.591Z,11.88
2022-12-13T23:54:14.555Z,11.77
2022-12-13T23:56:41.437Z,11.38
2022-12-13T23:59:08.625Z,11.50
